sensor_id;sensor_type;location;lat;lon;timestamp;noise_LAeq;noise_LA_min;noise_LA_max;noise_LA01;noise_LA95
64077;Laerm;51039;49.696;10.808;2023-04-24T00:02:09;40.26;39.03;41.43;;
64077;Laerm;51039;49.696;10.808;2023-04-24T00:04:37;40.25;39.04;41.48;;
64077;Laerm;51039;49.696;10.808;2023-04-24T00:07:05;40.25;39.04;41.34;;
64077;Laerm;51039;49.696;10.808;2023-04-24T00:09:32;40.26;38.97;41.31;;
64077;Laerm;51039;49.696;10.808;2023-04-24T00:11:57;40.25;38.90;41.49;;
64077;Laerm;51039;49.696;10.808;2023-04-24T00:14:22;40.25;39.01;41.58;;
64077;Laerm;51039;49.696;10.808;2023-04-24T00:16:48;40.26;38.87;41.45;;
64077;Laerm;51039;49.696;10.808;2023-04-24T00:19:13;40.26;39.04;41.61;;
64077;Laerm;51039;49.696;10.808;2023-04-24T00:21:39;40.25;39.08;41.47;;
64077;Laerm;51039;49.696;10.808;2023-04-24T00:24:04;40.25;39.08;41.31;;
64077;Laerm;51039;49.696;10.808;2023-04-24T00:26:30;40.26;39.02;41.44;;
64077;Laerm;51039;49.696;10.808;2023-04-24T00:28:55;40.26;39.12;41.37;;
64077;Laerm;51039;49.696;10.808;2023-04-24T00:31:21;40.26;38.87;41.31;;
64077;Laerm;51039;49.696;10.808;2023-04-24T00:33:46;40.26;38.98;41.67;;
64077;Laerm;51039;49.696;10.808;2023-04-24T00:36:11;40.26;39.05;41.40;;
64077;Laerm;51039;49.696;10.808;2023-04-24T00:38:37;40.27;38.99;41.61;;
64077;Laerm;51039;49.696;10.808;2023-04-24T00:41:02;40.28;38.91;41.32;;
64077;Laerm;51039;49.696;10.808;2023-04-24T00:43:27;40.27;39.08;41.54;;
64077;Laerm;51039;49.696;10.808;2023-04-24T00:45:52;40.28;39.05;41.56;;
64077;Laerm;51039;49.696;10.808;2023-04-24T00:48:18;40.28;39.06;41.36;;
64077;Laerm;51039;49.696;10.808;2023-04-24T00:50:45;40.30;38.89;41.38;;
64077;Laerm;51039;49.696;10.808;2023-04-24T00:53:10;40.30;39.02;41.52;;
64077;Laerm;51039;49.696;10.808;2023-04-24T00:55:36;40.31;39.14;41.51;;
64077;Laerm;51039;49.696;10.808;2023-04-24T00:58:02;40.32;38.97;41.43;;
64077;Laerm;51039;49.696;10.808;2023-04-24T01:00:27;40.34;38.94;41.44;;
64077;Laerm;51039;49.696;10.808;2023-04-24T01:02:53;40.32;39.09;41.48;;
64077;Laerm;51039;49.696;10.808;2023-04-24T01:05:20;40.32;39.20;41.43;;
64077;Laerm;51039;49.696;10.808;2023-04-24T01:07:47;40.31;39.07;41.53;;
64077;Laerm;51039;49.696;10.808;2023-04-24T01:10:14;40.30;38.94;41.44;;
64077;Laerm;51039;49.696;10.808;2023-04-24T01:12:40;40.30;39.12;41.44;;
64077;Laerm;51039;49.696;10.808;2023-04-24T01:15:06;40.28;39.05;41.49;;
64077;Laerm;51039;49.696;10.808;2023-04-24T01:17:32;40.28;39.12;41.54;;
64077;Laerm;51039;49.696;10.808;2023-04-24T01:19:58;40.25;39.04;41.29;;
64077;Laerm;51039;49.696;10.808;2023-04-24T01:22:25;40.25;39.10;41.62;;
64077;Laerm;51039;49.696;10.808;2023-04-24T01:24:51;40.25;39.05;41.37;;
64077;Laerm;51039;49.696;10.808;2023-04-24T01:27:16;40.24;38.90;41.35;;
64077;Laerm;51039;49.696;10.808;2023-04-24T01:29:42;40.24;39.16;41.39;;
64077;Laerm;51039;49.696;10.808;2023-04-24T01:32:07;40.24;38.95;41.42;;
64077;Laerm;51039;49.696;10.808;2023-04-24T01:34:33;40.23;39.05;41.52;;
64077;Laerm;51039;49.696;10.808;2023-04-24T01:36:59;40.23;39.05;41.42;;
64077;Laerm;51039;49.696;10.808;2023-04-24T01:39:25;40.21;38.98;41.37;;
64077;Laerm;51039;49.696;10.808;2023-04-24T01:41:53;40.20;39.10;41.46;;
64077;Laerm;51039;49.696;10.808;2023-04-24T01:44:19;40.18;39.03;41.46;;
64077;Laerm;51039;49.696;10.808;2023-04-24T01:46:44;39.90;38.31;41.30;;
64077;Laerm;51039;49.696;10.808;2023-04-24T01:49:10;39.76;38.28;40.97;;
64077;Laerm;51039;49.696;10.808;2023-04-24T01:51:35;39.75;38.44;40.89;;
64077;Laerm;51039;49.696;10.808;2023-04-24T01:54:01;39.74;38.42;41.00;;
64077;Laerm;51039;49.696;10.808;2023-04-24T01:56:28;39.73;38.61;40.91;;
64077;Laerm;51039;49.696;10.808;2023-04-24T01:58:54;39.74;38.37;41.05;;
64077;Laerm;51039;49.696;10.808;2023-04-24T02:01:20;39.73;38.58;40.83;;
64077;Laerm;51039;49.696;10.808;2023-04-24T02:03:46;39.71;38.48;40.77;;
64077;Laerm;51039;49.696;10.808;2023-04-24T02:06:11;39.72;38.47;40.84;;
64077;Laerm;51039;49.696;10.808;2023-04-24T02:08:37;39.72;38.49;40.80;;
64077;Laerm;51039;49.696;10.808;2023-04-24T02:11:02;39.73;38.63;40.79;;
64077;Laerm;51039;49.696;10.808;2023-04-24T02:13:28;39.74;38.56;40.83;;
64077;Laerm;51039;49.696;10.808;2023-04-24T02:15:53;39.74;38.38;40.72;;
64077;Laerm;51039;49.696;10.808;2023-04-24T02:18:18;39.75;38.44;40.88;;
64077;Laerm;51039;49.696;10.808;2023-04-24T02:20:44;39.74;38.46;40.83;;
64077;Laerm;51039;49.696;10.808;2023-04-24T02:23:10;39.73;38.32;41.07;;
64077;Laerm;51039;49.696;10.808;2023-04-24T02:25:35;39.71;38.66;40.76;;
64077;Laerm;51039;49.696;10.808;2023-04-24T02:28:00;39.72;38.40;40.80;;
64077;Laerm;51039;49.696;10.808;2023-04-24T02:30:26;39.73;38.55;40.88;;
64077;Laerm;51039;49.696;10.808;2023-04-24T02:32:51;39.75;38.54;40.88;;
64077;Laerm;51039;49.696;10.808;2023-04-24T02:35:16;39.73;38.48;41.20;;
64077;Laerm;51039;49.696;10.808;2023-04-24T02:37:42;39.72;38.16;40.79;;
64077;Laerm;51039;49.696;10.808;2023-04-24T02:40:08;39.69;38.61;40.81;;
64077;Laerm;51039;49.696;10.808;2023-04-24T02:42:33;39.69;38.44;40.73;;
64077;Laerm;51039;49.696;10.808;2023-04-24T02:44:59;39.68;38.44;41.06;;
64077;Laerm;51039;49.696;10.808;2023-04-24T02:47:24;39.66;38.08;40.79;;
64077;Laerm;51039;49.696;10.808;2023-04-24T02:49:49;39.67;38.58;40.90;;
64077;Laerm;51039;49.696;10.808;2023-04-24T02:52:15;39.67;38.57;40.77;;
64077;Laerm;51039;49.696;10.808;2023-04-24T02:54:40;39.68;38.42;40.73;;
64077;Laerm;51039;49.696;10.808;2023-04-24T02:57:05;39.69;38.51;40.72;;
64077;Laerm;51039;49.696;10.808;2023-04-24T02:59:31;39.70;38.45;40.83;;
64077;Laerm;51039;49.696;10.808;2023-04-24T03:01:56;39.72;38.37;40.87;;
64077;Laerm;51039;49.696;10.808;2023-04-24T03:04:22;39.72;38.51;40.99;;
64077;Laerm;51039;49.696;10.808;2023-04-24T03:06:48;39.72;38.45;40.87;;
64077;Laerm;51039;49.696;10.808;2023-04-24T03:09:13;39.72;38.47;40.75;;
64077;Laerm;51039;49.696;10.808;2023-04-24T03:11:39;39.73;38.37;41.15;;
64077;Laerm;51039;49.696;10.808;2023-04-24T03:14:05;39.74;38.54;40.88;;
64077;Laerm;51039;49.696;10.808;2023-04-24T03:16:30;39.76;38.38;40.95;;
64077;Laerm;51039;49.696;10.808;2023-04-24T03:18:56;39.78;38.69;42.22;;
64077;Laerm;51039;49.696;10.808;2023-04-24T03:21:22;39.80;38.25;41.09;;
64077;Laerm;51039;49.696;10.808;2023-04-24T03:23:47;39.78;38.40;41.04;;
64077;Laerm;51039;49.696;10.808;2023-04-24T03:26:12;39.78;38.63;41.00;;
64077;Laerm;51039;49.696;10.808;2023-04-24T03:28:38;39.77;38.21;41.13;;
64077;Laerm;51039;49.696;10.808;2023-04-24T03:31:03;39.75;38.61;40.85;;
64077;Laerm;51039;49.696;10.808;2023-04-24T03:33:29;39.76;38.65;40.80;;
64077;Laerm;51039;49.696;10.808;2023-04-24T03:35:54;39.76;38.61;40.92;;
64077;Laerm;51039;49.696;10.808;2023-04-24T03:38:19;39.80;38.62;40.85;;
64077;Laerm;51039;49.696;10.808;2023-04-24T03:40:45;39.84;38.57;40.92;;
64077;Laerm;51039;49.696;10.808;2023-04-24T03:43:10;39.86;38.58;41.19;;
64077;Laerm;51039;49.696;10.808;2023-04-24T03:45:35;39.86;38.69;41.02;;
64077;Laerm;51039;49.696;10.808;2023-04-24T03:48:00;39.88;38.69;41.06;;
64077;Laerm;51039;49.696;10.808;2023-04-24T03:50:26;39.87;38.51;40.98;;
64077;Laerm;51039;49.696;10.808;2023-04-24T03:52:51;39.86;38.52;41.00;;
64077;Laerm;51039;49.696;10.808;2023-04-24T03:55:17;39.86;38.58;41.08;;
64077;Laerm;51039;49.696;10.808;2023-04-24T03:57:42;39.86;38.72;41.14;;
64077;Laerm;51039;49.696;10.808;2023-04-24T04:00:08;39.88;38.55;40.95;;
64077;Laerm;51039;49.696;10.808;2023-04-24T04:02:34;39.89;38.66;40.93;;
64077;Laerm;51039;49.696;10.808;2023-04-24T04:04:59;39.90;38.32;41.04;;
64077;Laerm;51039;49.696;10.808;2023-04-24T04:07:24;39.89;38.55;40.98;;
64077;Laerm;51039;49.696;10.808;2023-04-24T04:09:50;39.91;38.74;41.09;;
64077;Laerm;51039;49.696;10.808;2023-04-24T04:12:15;39.91;38.78;41.25;;
64077;Laerm;51039;49.696;10.808;2023-04-24T04:14:41;39.92;38.71;41.09;;
64077;Laerm;51039;49.696;10.808;2023-04-24T04:17:06;39.91;38.55;41.01;;
64077;Laerm;51039;49.696;10.808;2023-04-24T04:19:31;39.89;38.67;40.93;;
64077;Laerm;51039;49.696;10.808;2023-04-24T04:21:57;39.88;38.54;40.92;;
64077;Laerm;51039;49.696;10.808;2023-04-24T04:24:22;39.87;38.75;40.93;;
64077;Laerm;51039;49.696;10.808;2023-04-24T04:26:49;39.88;38.60;41.05;;
64077;Laerm;51039;49.696;10.808;2023-04-24T04:29:16;39.85;38.64;41.03;;
64077;Laerm;51039;49.696;10.808;2023-04-24T04:31:43;39.86;38.45;41.02;;
64077;Laerm;51039;49.696;10.808;2023-04-24T04:34:08;39.87;38.79;41.03;;
64077;Laerm;51039;49.696;10.808;2023-04-24T04:36:34;39.89;38.67;40.98;;
64077;Laerm;51039;49.696;10.808;2023-04-24T04:39:02;39.89;38.80;41.12;;
64077;Laerm;51039;49.696;10.808;2023-04-24T04:41:27;39.91;38.69;40.97;;
64077;Laerm;51039;49.696;10.808;2023-04-24T04:43:53;39.94;38.50;41.25;;
64077;Laerm;51039;49.696;10.808;2023-04-24T04:46:18;39.94;38.65;41.12;;
64077;Laerm;51039;49.696;10.808;2023-04-24T04:48:43;39.95;38.47;41.02;;
64077;Laerm;51039;49.696;10.808;2023-04-24T04:51:09;39.98;38.78;41.44;;
64077;Laerm;51039;49.696;10.808;2023-04-24T04:53:34;40.01;38.79;41.11;;
64077;Laerm;51039;49.696;10.808;2023-04-24T04:56:00;40.04;38.75;41.26;;
64077;Laerm;51039;49.696;10.808;2023-04-24T04:58:25;40.07;39.05;41.18;;
64077;Laerm;51039;49.696;10.808;2023-04-24T05:00:51;40.14;38.98;41.34;;
64077;Laerm;51039;49.696;10.808;2023-04-24T05:03:17;40.18;38.73;41.21;;
64077;Laerm;51039;49.696;10.808;2023-04-24T05:05:42;40.21;38.95;41.35;;
64077;Laerm;51039;49.696;10.808;2023-04-24T05:08:08;40.22;39.04;41.55;;
64077;Laerm;51039;49.696;10.808;2023-04-24T05:10:33;40.24;39.00;41.79;;
64077;Laerm;51039;49.696;10.808;2023-04-24T05:12:59;40.25;39.15;41.36;;
64077;Laerm;51039;49.696;10.808;2023-04-24T05:15:24;40.26;39.13;41.47;;
64077;Laerm;51039;49.696;10.808;2023-04-24T05:17:49;40.28;39.04;41.49;;
64077;Laerm;51039;49.696;10.808;2023-04-24T05:20:15;40.30;39.20;41.56;;
64077;Laerm;51039;49.696;10.808;2023-04-24T05:22:40;40.30;39.18;41.66;;
64077;Laerm;51039;49.696;10.808;2023-04-24T05:25:06;40.32;39.16;41.77;;
64077;Laerm;51039;49.696;10.808;2023-04-24T05:27:31;40.34;39.20;41.53;;
64077;Laerm;51039;49.696;10.808;2023-04-24T05:29:56;40.34;39.14;41.59;;
64077;Laerm;51039;49.696;10.808;2023-04-24T05:32:22;40.33;38.95;41.58;;
64077;Laerm;51039;49.696;10.808;2023-04-24T05:34:47;40.32;39.13;41.45;;
64077;Laerm;51039;49.696;10.808;2023-04-24T05:37:13;40.33;39.12;41.39;;
64077;Laerm;51039;49.696;10.808;2023-04-24T05:39:38;40.35;39.21;41.51;;
64077;Laerm;51039;49.696;10.808;2023-04-24T05:42:04;40.39;39.24;41.56;;
64077;Laerm;51039;49.696;10.808;2023-04-24T05:44:30;40.41;39.25;41.69;;
64077;Laerm;51039;49.696;10.808;2023-04-24T05:46:55;40.74;39.45;41.99;;
64077;Laerm;51039;49.696;10.808;2023-04-24T05:49:21;40.83;39.54;41.89;;
64077;Laerm;51039;49.696;10.808;2023-04-24T05:51:47;40.87;39.55;42.03;;
64077;Laerm;51039;49.696;10.808;2023-04-24T05:54:12;40.86;39.61;42.10;;
64077;Laerm;51039;49.696;10.808;2023-04-24T05:56:38;40.86;39.77;42.11;;
64077;Laerm;51039;49.696;10.808;2023-04-24T05:59:03;40.87;39.59;41.89;;
64077;Laerm;51039;49.696;10.808;2023-04-24T06:01:29;40.91;39.46;42.08;;
64077;Laerm;51039;49.696;10.808;2023-04-24T06:03:55;40.88;39.64;42.11;;
64077;Laerm;51039;49.696;10.808;2023-04-24T06:06:20;40.84;39.49;42.06;;
64077;Laerm;51039;49.696;10.808;2023-04-24T06:08:46;40.71;39.53;41.99;;
64077;Laerm;51039;49.696;10.808;2023-04-24T06:11:11;40.60;39.56;41.78;;
64077;Laerm;51039;49.696;10.808;2023-04-24T06:13:36;40.53;39.32;41.77;;
64077;Laerm;51039;49.696;10.808;2023-04-24T06:16:02;40.45;39.21;41.72;;
64077;Laerm;51039;49.696;10.808;2023-04-24T06:18:27;40.37;39.18;41.62;;
64077;Laerm;51039;49.696;10.808;2023-04-24T06:20:52;40.30;39.20;41.54;;
64077;Laerm;51039;49.696;10.808;2023-04-24T06:23:17;40.34;39.10;41.62;;
64077;Laerm;51039;49.696;10.808;2023-04-24T06:25:43;40.35;39.16;41.74;;
64077;Laerm;51039;49.696;10.808;2023-04-24T06:28:08;40.37;39.15;41.59;;
64077;Laerm;51039;49.696;10.808;2023-04-24T06:30:33;40.42;38.96;41.60;;
64077;Laerm;51039;49.696;10.808;2023-04-24T06:32:59;40.46;39.21;41.56;;
64077;Laerm;51039;49.696;10.808;2023-04-24T06:35:24;40.55;39.18;41.64;;
64077;Laerm;51039;49.696;10.808;2023-04-24T06:37:50;40.57;39.37;41.88;;
64077;Laerm;51039;49.696;10.808;2023-04-24T06:40:16;40.61;39.29;41.75;;
64077;Laerm;51039;49.696;10.808;2023-04-24T06:42:43;40.61;39.31;41.82;;
64077;Laerm;51039;49.696;10.808;2023-04-24T06:45:09;40.57;39.41;41.78;;
64077;Laerm;51039;49.696;10.808;2023-04-24T06:47:35;40.59;39.34;41.77;;
64077;Laerm;51039;49.696;10.808;2023-04-24T06:50:00;40.63;39.29;42.01;;
64077;Laerm;51039;49.696;10.808;2023-04-24T06:52:25;40.64;39.29;41.83;;
64077;Laerm;51039;49.696;10.808;2023-04-24T06:54:50;40.66;39.46;41.74;;
64077;Laerm;51039;49.696;10.808;2023-04-24T06:57:17;40.69;39.57;41.80;;
64077;Laerm;51039;49.696;10.808;2023-04-24T06:59:43;40.78;39.38;41.97;;
64077;Laerm;51039;49.696;10.808;2023-04-24T07:02:08;40.86;39.66;41.96;;
64077;Laerm;51039;49.696;10.808;2023-04-24T07:04:34;40.92;39.55;42.18;;
64077;Laerm;51039;49.696;10.808;2023-04-24T07:06:59;40.98;39.63;42.13;;
64077;Laerm;51039;49.696;10.808;2023-04-24T07:09:25;41.07;39.71;42.28;;
64077;Laerm;51039;49.696;10.808;2023-04-24T07:11:51;41.25;40.04;42.45;;
64077;Laerm;51039;49.696;10.808;2023-04-24T07:14:17;41.52;40.26;42.68;;
64077;Laerm;51039;49.696;10.808;2023-04-24T07:16:43;41.61;40.57;42.79;;
64077;Laerm;51039;49.696;10.808;2023-04-24T07:19:09;41.73;40.48;42.81;;
64077;Laerm;51039;49.696;10.808;2023-04-24T07:21:34;42.05;40.59;43.51;;
64077;Laerm;51039;49.696;10.808;2023-04-24T07:23:59;42.43;41.14;43.47;;
64077;Laerm;51039;49.696;10.808;2023-04-24T07:26:26;42.55;41.38;43.71;;
64077;Laerm;51039;49.696;10.808;2023-04-24T07:28:51;42.59;41.05;43.67;;
64077;Laerm;51039;49.696;10.808;2023-04-24T07:31:17;42.59;41.37;43.91;;
64077;Laerm;51039;49.696;10.808;2023-04-24T07:33:42;42.51;41.33;43.80;;
64077;Laerm;51039;49.696;10.808;2023-04-24T07:36:08;42.65;41.53;45.50;;
64077;Laerm;51039;49.696;10.808;2023-04-24T07:38:40;43.09;41.90;44.61;;
64077;Laerm;51039;49.696;10.808;2023-04-24T07:41:05;43.51;42.12;44.84;;
64077;Laerm;51039;49.696;10.808;2023-04-24T07:43:31;43.91;42.65;45.04;;
64077;Laerm;51039;49.696;10.808;2023-04-24T07:45:56;44.29;43.00;45.88;;
64077;Laerm;51039;49.696;10.808;2023-04-24T07:48:21;44.58;43.14;46.23;;
64077;Laerm;51039;49.696;10.808;2023-04-24T07:50:47;44.69;43.32;45.91;;
64077;Laerm;51039;49.696;10.808;2023-04-24T07:53:12;44.69;43.48;45.98;;
64077;Laerm;51039;49.696;10.808;2023-04-24T07:55:37;44.69;43.07;45.90;;
64077;Laerm;51039;49.696;10.808;2023-04-24T07:58:03;44.68;43.35;45.98;;
64077;Laerm;51039;49.696;10.808;2023-04-24T08:00:29;44.66;43.32;45.90;;
64077;Laerm;51039;49.696;10.808;2023-04-24T08:02:54;44.67;43.11;45.90;;
64077;Laerm;51039;49.696;10.808;2023-04-24T08:05:19;44.70;43.26;46.06;;
64077;Laerm;51039;49.696;10.808;2023-04-24T08:07:45;44.67;43.42;46.44;;
64077;Laerm;51039;49.696;10.808;2023-04-24T08:10:13;44.57;43.28;51.48;;
64077;Laerm;51039;49.696;10.808;2023-04-24T08:12:40;44.51;43.21;45.86;;
64077;Laerm;51039;49.696;10.808;2023-04-24T08:15:05;44.52;43.14;45.68;;
64077;Laerm;51039;49.696;10.808;2023-04-24T08:17:31;44.62;43.23;50.64;;
64077;Laerm;51039;49.696;10.808;2023-04-24T08:19:56;44.55;43.26;46.07;;
64077;Laerm;51039;49.696;10.808;2023-04-24T08:22:27;44.57;43.32;46.50;;
64077;Laerm;51039;49.696;10.808;2023-04-24T08:24:52;44.56;43.12;50.13;;
64077;Laerm;51039;49.696;10.808;2023-04-24T08:27:18;44.46;43.18;52.04;;
64077;Laerm;51039;49.696;10.808;2023-04-24T08:29:43;44.35;43.11;46.10;;
64077;Laerm;51039;49.696;10.808;2023-04-24T08:32:09;44.18;42.96;45.47;;
64077;Laerm;51039;49.696;10.808;2023-04-24T08:34:34;44.14;42.97;45.47;;
64077;Laerm;51039;49.696;10.808;2023-04-24T08:36:59;44.06;42.77;48.87;;
64077;Laerm;51039;49.696;10.808;2023-04-24T08:39:25;43.99;42.62;45.50;;
64077;Laerm;51039;49.696;10.808;2023-04-24T08:41:50;44.17;42.86;46.46;;
64077;Laerm;51039;49.696;10.808;2023-04-24T08:44:19;44.13;42.79;46.70;;
64077;Laerm;51039;49.696;10.808;2023-04-24T08:46:44;44.07;42.78;46.25;;
64077;Laerm;51039;49.696;10.808;2023-04-24T08:49:14;43.97;42.54;45.73;;
64077;Laerm;51039;49.696;10.808;2023-04-24T08:51:44;43.88;42.78;45.08;;
64077;Laerm;51039;49.696;10.808;2023-04-24T08:54:11;43.88;42.75;44.98;;
64077;Laerm;51039;49.696;10.808;2023-04-24T08:56:39;43.98;42.72;45.86;;
64077;Laerm;51039;49.696;10.808;2023-04-24T08:59:06;44.10;42.86;47.71;;
64077;Laerm;51039;49.696;10.808;2023-04-24T09:01:32;44.08;42.75;45.34;;
64077;Laerm;51039;49.696;10.808;2023-04-24T09:04:02;44.08;42.75;45.65;;
64077;Laerm;51039;49.696;10.808;2023-04-24T09:06:28;44.08;42.80;46.31;;
64077;Laerm;51039;49.696;10.808;2023-04-24T09:08:53;44.21;42.96;60.04;;
64077;Laerm;51039;49.696;10.808;2023-04-24T09:11:19;44.24;42.72;50.65;;
64077;Laerm;51039;49.696;10.808;2023-04-24T09:13:46;44.31;43.05;49.79;;
64077;Laerm;51039;49.696;10.808;2023-04-24T09:16:13;44.41;43.06;48.47;;
64077;Laerm;51039;49.696;10.808;2023-04-24T09:18:39;44.37;42.88;45.90;;
64077;Laerm;51039;49.696;10.808;2023-04-24T09:21:09;44.44;42.97;50.08;;
64077;Laerm;51039;49.696;10.808;2023-04-24T09:23:34;44.36;43.02;47.51;;
64077;Laerm;51039;49.696;10.808;2023-04-24T09:26:01;44.41;43.19;48.82;;
64077;Laerm;51039;49.696;10.808;2023-04-24T09:28:38;44.48;42.95;45.88;;
64077;Laerm;51039;49.696;10.808;2023-04-24T09:31:08;44.54;43.28;46.65;;
64077;Laerm;51039;49.696;10.808;2023-04-24T09:33:34;44.59;43.11;52.43;;
64077;Laerm;51039;49.696;10.808;2023-04-24T09:35:59;44.57;43.34;46.08;;
64077;Laerm;51039;49.696;10.808;2023-04-24T09:38:38;44.61;43.37;47.08;;
64077;Laerm;51039;49.696;10.808;2023-04-24T09:41:07;44.65;43.30;52.69;;
64077;Laerm;51039;49.696;10.808;2023-04-24T09:43:34;44.63;43.29;46.39;;
64077;Laerm;51039;49.696;10.808;2023-04-24T09:46:07;44.62;43.34;48.04;;
64077;Laerm;51039;49.696;10.808;2023-04-24T09:48:36;44.56;43.24;50.24;;
64077;Laerm;51039;49.696;10.808;2023-04-24T09:51:04;44.44;43.19;45.68;;
64077;Laerm;51039;49.696;10.808;2023-04-24T09:53:32;44.36;42.83;46.23;;
64077;Laerm;51039;49.696;10.808;2023-04-24T09:56:10;44.23;43.04;46.87;;
64077;Laerm;51039;49.696;10.808;2023-04-24T09:58:38;44.21;42.75;57.32;;
64077;Laerm;51039;49.696;10.808;2023-04-24T10:01:04;43.92;42.66;50.44;;
64077;Laerm;51039;49.696;10.808;2023-04-24T10:03:31;43.80;42.32;52.53;;
64077;Laerm;51039;49.696;10.808;2023-04-24T10:06:01;43.62;41.96;53.65;;
64077;Laerm;51039;49.696;10.808;2023-04-24T10:08:33;43.33;41.89;45.69;;
64077;Laerm;51039;49.696;10.808;2023-04-24T10:10:59;41.74;39.35;51.48;;
64077;Laerm;51039;49.696;10.808;2023-04-24T10:13:25;40.14;38.17;65.99;;
64077;Laerm;51039;49.696;10.808;2023-04-24T10:15:51;39.81;37.94;42.10;;
64077;Laerm;51039;49.696;10.808;2023-04-24T10:18:16;41.97;40.29;51.47;;
64077;Laerm;51039;49.696;10.808;2023-04-24T10:20:42;42.61;41.35;43.83;;
64077;Laerm;51039;49.696;10.808;2023-04-24T10:23:07;42.86;41.76;44.05;;
64077;Laerm;51039;49.696;10.808;2023-04-24T10:25:34;43.06;41.77;44.26;;
64077;Laerm;51039;49.696;10.808;2023-04-24T10:28:01;43.30;42.02;45.65;;
64077;Laerm;51039;49.696;10.808;2023-04-24T10:30:34;43.43;42.21;52.12;;
64077;Laerm;51039;49.696;10.808;2023-04-24T10:33:05;43.50;41.91;44.53;;
64077;Laerm;51039;49.696;10.808;2023-04-24T10:35:32;43.66;42.35;47.56;;
64077;Laerm;51039;49.696;10.808;2023-04-24T10:38:03;43.78;42.43;55.41;;
64077;Laerm;51039;49.696;10.808;2023-04-24T10:40:32;43.81;42.50;45.45;;
64077;Laerm;51039;49.696;10.808;2023-04-24T10:42:58;44.01;42.70;45.28;;
64077;Laerm;51039;49.696;10.808;2023-04-24T10:45:28;44.13;42.84;51.73;;
64077;Laerm;51039;49.696;10.808;2023-04-24T10:48:04;44.12;42.80;45.46;;
64077;Laerm;51039;49.696;10.808;2023-04-24T10:50:47;44.20;42.78;48.73;;
64077;Laerm;51039;49.696;10.808;2023-04-24T10:53:17;44.31;42.84;52.87;;
64077;Laerm;51039;49.696;10.808;2023-04-24T10:55:46;44.18;42.86;45.32;;
64077;Laerm;51039;49.696;10.808;2023-04-24T10:58:12;44.18;42.88;50.20;;
64077;Laerm;51039;49.696;10.808;2023-04-24T11:00:39;44.16;42.70;46.96;;
64077;Laerm;51039;49.696;10.808;2023-04-24T11:03:06;44.22;42.83;46.44;;
64077;Laerm;51039;49.696;10.808;2023-04-24T11:11:03;44.36;42.97;51.15;;
64077;Laerm;51039;49.696;10.808;2023-04-24T11:29:43;44.61;43.01;62.40;;
64077;Laerm;51039;49.696;10.808;2023-04-24T11:32:30;44.41;43.21;51.96;;
64077;Laerm;51039;49.696;10.808;2023-04-24T11:35:01;44.38;42.78;49.53;;
64077;Laerm;51039;49.696;10.808;2023-04-24T11:37:29;44.32;43.15;45.74;;
64077;Laerm;51039;49.696;10.808;2023-04-24T11:39:58;44.35;43.02;51.03;;
64077;Laerm;51039;49.696;10.808;2023-04-24T11:42:24;44.36;43.16;48.22;;
64077;Laerm;51039;49.696;10.808;2023-04-24T11:44:52;44.84;43.16;62.65;;
64077;Laerm;51039;49.696;10.808;2023-04-24T11:47:18;44.51;43.26;53.25;;
64077;Laerm;51039;49.696;10.808;2023-04-24T11:49:43;44.51;42.97;52.85;;
64077;Laerm;51039;49.696;10.808;2023-04-24T11:52:09;44.51;43.06;52.69;;
64077;Laerm;51039;49.696;10.808;2023-04-24T11:54:35;44.47;43.06;55.78;;
64077;Laerm;51039;49.696;10.808;2023-04-24T11:57:04;44.47;43.20;52.00;;
64077;Laerm;51039;49.696;10.808;2023-04-24T11:59:35;44.45;43.09;47.59;;
64077;Laerm;51039;49.696;10.808;2023-04-24T12:02:00;44.62;43.21;52.37;;
64077;Laerm;51039;49.696;10.808;2023-04-24T12:04:26;44.51;43.07;52.75;;
64077;Laerm;51039;49.696;10.808;2023-04-24T12:07:04;44.56;43.09;54.34;;
64077;Laerm;51039;49.696;10.808;2023-04-24T12:09:55;44.55;43.13;57.29;;
64077;Laerm;51039;49.696;10.808;2023-04-24T12:12:20;44.56;43.18;55.54;;
64077;Laerm;51039;49.696;10.808;2023-04-24T12:14:50;44.46;43.10;46.93;;
64077;Laerm;51039;49.696;10.808;2023-04-24T12:17:17;44.50;43.32;51.91;;
64077;Laerm;51039;49.696;10.808;2023-04-24T12:19:48;44.53;43.19;53.92;;
64077;Laerm;51039;49.696;10.808;2023-04-24T12:22:14;44.52;43.21;54.68;;
64077;Laerm;51039;49.696;10.808;2023-04-24T12:25:00;44.47;43.31;56.01;;
64077;Laerm;51039;49.696;10.808;2023-04-24T12:27:28;44.41;42.89;45.71;;
64077;Laerm;51039;49.696;10.808;2023-04-24T12:29:57;44.40;43.01;45.53;;
64077;Laerm;51039;49.696;10.808;2023-04-24T12:32:23;44.40;43.16;49.47;;
64077;Laerm;51039;49.696;10.808;2023-04-24T12:34:50;44.38;43.20;45.51;;
64077;Laerm;51039;49.696;10.808;2023-04-24T12:37:17;44.35;43.18;46.59;;
64077;Laerm;51039;49.696;10.808;2023-04-24T12:39:58;44.34;42.61;45.61;;
64077;Laerm;51039;49.696;10.808;2023-04-24T12:42:29;44.37;43.03;46.74;;
64077;Laerm;51039;49.696;10.808;2023-04-24T12:44:59;44.42;43.15;45.93;;
64077;Laerm;51039;49.696;10.808;2023-04-24T12:47:26;44.46;43.12;53.70;;
64077;Laerm;51039;49.696;10.808;2023-04-24T12:49:52;44.41;43.21;45.71;;
64077;Laerm;51039;49.696;10.808;2023-04-24T12:52:19;44.37;43.14;45.57;;
64077;Laerm;51039;49.696;10.808;2023-04-24T12:54:48;44.35;43.10;46.51;;
64077;Laerm;51039;49.696;10.808;2023-04-24T12:57:13;44.35;43.08;51.87;;
64077;Laerm;51039;49.696;10.808;2023-04-24T12:59:39;44.38;43.15;46.32;;
64077;Laerm;51039;49.696;10.808;2023-04-24T13:02:06;44.34;43.00;47.86;;
64077;Laerm;51039;49.696;10.808;2023-04-24T13:04:31;44.42;43.17;48.00;;
64077;Laerm;51039;49.696;10.808;2023-04-24T13:06:57;44.32;42.87;49.97;;
64077;Laerm;51039;49.696;10.808;2023-04-24T13:09:22;44.25;42.88;54.66;;
64077;Laerm;51039;49.696;10.808;2023-04-24T13:11:49;44.19;42.68;45.75;;
64077;Laerm;51039;49.696;10.808;2023-04-24T13:14:14;44.15;42.92;47.28;;
64077;Laerm;51039;49.696;10.808;2023-04-24T13:16:40;44.08;42.77;45.15;;
64077;Laerm;51039;49.696;10.808;2023-04-24T13:19:05;43.97;42.63;45.15;;
64077;Laerm;51039;49.696;10.808;2023-04-24T13:21:31;43.99;42.66;47.64;;
64077;Laerm;51039;49.696;10.808;2023-04-24T13:23:56;44.03;42.66;45.30;;
64077;Laerm;51039;49.696;10.808;2023-04-24T13:26:22;44.14;42.83;55.71;;
64077;Laerm;51039;49.696;10.808;2023-04-24T13:28:48;44.12;42.83;45.63;;
64077;Laerm;51039;49.696;10.808;2023-04-24T13:31:13;44.29;42.83;50.11;;
64077;Laerm;51039;49.696;10.808;2023-04-24T13:33:38;44.41;43.16;55.84;;
64077;Laerm;51039;49.696;10.808;2023-04-24T13:36:05;44.36;42.85;46.09;;
64077;Laerm;51039;49.696;10.808;2023-04-24T13:38:30;44.67;43.24;57.68;;
64077;Laerm;51039;49.696;10.808;2023-04-24T13:40:56;44.49;43.29;54.09;;
64077;Laerm;51039;49.696;10.808;2023-04-24T13:43:21;44.46;42.99;47.08;;
64077;Laerm;51039;49.696;10.808;2023-04-24T13:45:46;44.49;43.17;50.84;;
64077;Laerm;51039;49.696;10.808;2023-04-24T13:48:12;44.48;43.34;50.40;;
64077;Laerm;51039;49.696;10.808;2023-04-24T13:50:41;44.41;43.05;45.67;;